sensor_id;sensor_type;location;lat;lon;timestamp;temperature;humidity
43858;DHT22;29507;51.284;5.758;2023-05-10T00:00:00;12.00;99.90
43858;DHT22;29507;51.284;5.758;2023-05-10T00:02:26;12.00;99.90
43858;DHT22;29507;51.284;5.758;2023-05-10T00:04:51;12.00;99.90
43858;DHT22;29507;51.284;5.758;2023-05-10T00:07:17;12.00;99.90
43858;DHT22;29507;51.284;5.758;2023-05-10T00:09:43;12.00;99.90
43858;DHT22;29507;51.284;5.758;2023-05-10T00:12:09;12.00;99.90
43858;DHT22;29507;51.284;5.758;2023-05-10T00:14:35;12.00;99.90
43858;DHT22;29507;51.284;5.758;2023-05-10T00:17:00;12.00;99.90
43858;DHT22;29507;51.284;5.758;2023-05-10T00:19:26;12.10;99.90
43858;DHT22;29507;51.284;5.758;2023-05-10T00:21:52;12.00;99.90
43858;DHT22;29507;51.284;5.758;2023-05-10T00:24:17;12.10;99.90
43858;DHT22;29507;51.284;5.758;2023-05-10T00:26:43;12.00;99.90
43858;DHT22;29507;51.284;5.758;2023-05-10T00:29:09;12.00;99.90
43858;DHT22;29507;51.284;5.758;2023-05-10T00:31:34;12.00;99.90
43858;DHT22;29507;51.284;5.758;2023-05-10T00:34:00;12.10;99.90
43858;DHT22;29507;51.284;5.758;2023-05-10T00:36:25;12.10;99.90
43858;DHT22;29507;51.284;5.758;2023-05-10T00:38:51;12.10;99.90
43858;DHT22;29507;51.284;5.758;2023-05-10T00:41:17;12.10;99.90
43858;DHT22;29507;51.284;5.758;2023-05-10T00:43:42;12.10;99.90
43858;DHT22;29507;51.284;5.758;2023-05-10T00:46:08;12.10;99.90
43858;DHT22;29507;51.284;5.758;2023-05-10T00:48:34;12.10;99.90
43858;DHT22;29507;51.284;5.758;2023-05-10T00:51:01;12.10;99.90
43858;DHT22;29507;51.284;5.758;2023-05-10T00:53:27;12.10;99.90
43858;DHT22;29507;51.284;5.758;2023-05-10T00:55:53;12.10;99.90
43858;DHT22;29507;51.284;5.758;2023-05-10T00:58:18;12.10;99.90
43858;DHT22;29507;51.284;5.758;2023-05-10T01:00:46;12.10;99.90
43858;DHT22;29507;51.284;5.758;2023-05-10T01:03:12;12.10;99.90
43858;DHT22;29507;51.284;5.758;2023-05-10T01:05:39;12.10;99.90
43858;DHT22;29507;51.284;5.758;2023-05-10T01:08:05;12.10;99.90
43858;DHT22;29507;51.284;5.758;2023-05-10T01:10:31;12.10;99.90
43858;DHT22;29507;51.284;5.758;2023-05-10T01:12:59;12.10;99.90
43858;DHT22;29507;51.284;5.758;2023-05-10T01:15:25;12.10;99.90
43858;DHT22;29507;51.284;5.758;2023-05-10T01:17:51;12.10;99.90
43858;DHT22;29507;51.284;5.758;2023-05-10T01:20:17;12.10;99.90
43858;DHT22;29507;51.284;5.758;2023-05-10T01:26:04;12.20;99.90
43858;DHT22;29507;51.284;5.758;2023-05-10T01:34:06;12.30;99.90
43858;DHT22;29507;51.284;5.758;2023-05-10T01:36:43;12.30;99.90
43858;DHT22;29507;51.284;5.758;2023-05-10T01:39:24;12.40;99.90
43858;DHT22;29507;51.284;5.758;2023-05-10T01:42:11;12.40;99.90
43858;DHT22;29507;51.284;5.758;2023-05-10T01:44:42;12.40;99.90
43858;DHT22;29507;51.284;5.758;2023-05-10T01:47:17;12.40;99.90
43858;DHT22;29507;51.284;5.758;2023-05-10T01:49:50;12.40;99.90
43858;DHT22;29507;51.284;5.758;2023-05-10T01:52:19;12.40;99.90
43858;DHT22;29507;51.284;5.758;2023-05-10T01:54:50;12.40;99.90
43858;DHT22;29507;51.284;5.758;2023-05-10T01:57:20;12.40;99.90
43858;DHT22;29507;51.284;5.758;2023-05-10T01:59:49;12.40;99.90
43858;DHT22;29507;51.284;5.758;2023-05-10T02:02:16;12.40;99.90
43858;DHT22;29507;51.284;5.758;2023-05-10T02:04:43;12.40;99.90
43858;DHT22;29507;51.284;5.758;2023-05-10T02:07:09;12.40;99.90
43858;DHT22;29507;51.284;5.758;2023-05-10T02:09:37;12.40;99.90
43858;DHT22;29507;51.284;5.758;2023-05-10T02:12:05;12.30;99.90
43858;DHT22;29507;51.284;5.758;2023-05-10T02:14:35;12.40;99.90
43858;DHT22;29507;51.284;5.758;2023-05-10T02:17:01;12.40;99.90
43858;DHT22;29507;51.284;5.758;2023-05-10T02:19:29;12.30;99.90
43858;DHT22;29507;51.284;5.758;2023-05-10T02:21:55;12.20;99.90
43858;DHT22;29507;51.284;5.758;2023-05-10T02:24:22;12.20;99.90
43858;DHT22;29507;51.284;5.758;2023-05-10T02:26:50;12.20;99.90
43858;DHT22;29507;51.284;5.758;2023-05-10T02:29:16;12.20;99.90
43858;DHT22;29507;51.284;5.758;2023-05-10T02:31:43;12.20;99.90
43858;DHT22;29507;51.284;5.758;2023-05-10T02:34:10;12.30;99.90
43858;DHT22;29507;51.284;5.758;2023-05-10T02:36:38;12.30;99.90
43858;DHT22;29507;51.284;5.758;2023-05-10T02:39:05;12.30;99.90
43858;DHT22;29507;51.284;5.758;2023-05-10T02:41:35;12.30;99.90
43858;DHT22;29507;51.284;5.758;2023-05-10T02:44:02;12.30;99.90
43858;DHT22;29507;51.284;5.758;2023-05-10T02:46:29;12.30;99.90
43858;DHT22;29507;51.284;5.758;2023-05-10T02:48:55;12.30;99.90
43858;DHT22;29507;51.284;5.758;2023-05-10T02:51:25;12.30;99.90
43858;DHT22;29507;51.284;5.758;2023-05-10T02:53:54;12.30;99.90
43858;DHT22;29507;51.284;5.758;2023-05-10T02:56:25;12.30;99.90
43858;DHT22;29507;51.284;5.758;2023-05-10T02:58:54;12.30;99.90
43858;DHT22;29507;51.284;5.758;2023-05-10T03:01:20;12.30;99.90
43858;DHT22;29507;51.284;5.758;2023-05-10T03:03:46;12.30;99.90
43858;DHT22;29507;51.284;5.758;2023-05-10T03:06:11;12.30;99.90
43858;DHT22;29507;51.284;5.758;2023-05-10T03:08:37;12.20;99.90
43858;DHT22;29507;51.284;5.758;2023-05-10T03:16:28;12.20;99.90
43858;DHT22;29507;51.284;5.758;2023-05-10T03:19:09;12.10;99.90
43858;DHT22;29507;51.284;5.758;2023-05-10T03:21:38;12.10;99.90
43858;DHT22;29507;51.284;5.758;2023-05-10T03:24:08;12.10;99.90
43858;DHT22;29507;51.284;5.758;2023-05-10T03:26:34;12.00;99.90
43858;DHT22;29507;51.284;5.758;2023-05-10T03:29:02;12.00;99.90
43858;DHT22;29507;51.284;5.758;2023-05-10T03:31:29;12.00;99.90
43858;DHT22;29507;51.284;5.758;2023-05-10T03:33:55;12.00;99.90
43858;DHT22;29507;51.284;5.758;2023-05-10T03:36:20;12.00;99.90
43858;DHT22;29507;51.284;5.758;2023-05-10T03:38:46;12.00;99.90
43858;DHT22;29507;51.284;5.758;2023-05-10T03:41:12;12.10;99.90
43858;DHT22;29507;51.284;5.758;2023-05-10T03:43:37;12.00;99.90
43858;DHT22;29507;51.284;5.758;2023-05-10T03:46:04;12.00;99.90
43858;DHT22;29507;51.284;5.758;2023-05-10T03:48:30;12.10;99.90
43858;DHT22;29507;51.284;5.758;2023-05-10T03:50:56;12.10;99.90
43858;DHT22;29507;51.284;5.758;2023-05-10T03:53:22;12.10;99.90
43858;DHT22;29507;51.284;5.758;2023-05-10T03:55:48;12.10;99.90
43858;DHT22;29507;51.284;5.758;2023-05-10T03:58:14;12.10;99.90
43858;DHT22;29507;51.284;5.758;2023-05-10T04:00:39;12.10;99.90
43858;DHT22;29507;51.284;5.758;2023-05-10T04:03:12;12.10;99.90
43858;DHT22;29507;51.284;5.758;2023-05-10T04:05:38;12.10;99.90
43858;DHT22;29507;51.284;5.758;2023-05-10T04:08:04;12.10;99.90
43858;DHT22;29507;51.284;5.758;2023-05-10T04:10:30;12.10;99.90
43858;DHT22;29507;51.284;5.758;2023-05-10T04:12:56;12.10;99.90
43858;DHT22;29507;51.284;5.758;2023-05-10T04:15:21;12.10;99.90
43858;DHT22;29507;51.284;5.758;2023-05-10T04:17:47;12.10;99.90
43858;DHT22;29507;51.284;5.758;2023-05-10T04:20:13;12.10;99.90
43858;DHT22;29507;51.284;5.758;2023-05-10T04:22:39;12.10;99.90
43858;DHT22;29507;51.284;5.758;2023-05-10T04:25:05;12.10;99.90
43858;DHT22;29507;51.284;5.758;2023-05-10T04:27:31;12.10;99.90
43858;DHT22;29507;51.284;5.758;2023-05-10T04:29:57;12.10;99.90
43858;DHT22;29507;51.284;5.758;2023-05-10T04:32:23;12.10;99.90
43858;DHT22;29507;51.284;5.758;2023-05-10T04:34:48;12.10;99.90
43858;DHT22;29507;51.284;5.758;2023-05-10T04:37:14;12.10;99.90
43858;DHT22;29507;51.284;5.758;2023-05-10T04:39:40;12.10;99.90
43858;DHT22;29507;51.284;5.758;2023-05-10T04:42:05;12.10;99.90
43858;DHT22;29507;51.284;5.758;2023-05-10T04:44:32;12.10;99.90
43858;DHT22;29507;51.284;5.758;2023-05-10T04:46:57;12.10;99.90
43858;DHT22;29507;51.284;5.758;2023-05-10T04:49:23;12.10;99.90
43858;DHT22;29507;51.284;5.758;2023-05-10T04:51:49;12.10;99.90
43858;DHT22;29507;51.284;5.758;2023-05-10T04:54:14;12.10;99.90
43858;DHT22;29507;51.284;5.758;2023-05-10T04:56:40;12.20;99.90
43858;DHT22;29507;51.284;5.758;2023-05-10T04:59:06;12.30;99.90
43858;DHT22;29507;51.284;5.758;2023-05-10T05:01:32;12.30;99.90
43858;DHT22;29507;51.284;5.758;2023-05-10T05:03:57;12.40;99.90
43858;DHT22;29507;51.284;5.758;2023-05-10T05:06:23;12.40;99.90
43858;DHT22;29507;51.284;5.758;2023-05-10T05:08:50;12.50;99.90
43858;DHT22;29507;51.284;5.758;2023-05-10T05:11:16;12.60;99.90
43858;DHT22;29507;51.284;5.758;2023-05-10T05:13:42;12.60;99.90
43858;DHT22;29507;51.284;5.758;2023-05-10T05:16:08;12.60;99.90
43858;DHT22;29507;51.284;5.758;2023-05-10T05:18:33;12.70;99.90
43858;DHT22;29507;51.284;5.758;2023-05-10T05:20:59;12.60;99.90
43858;DHT22;29507;51.284;5.758;2023-05-10T05:23:24;12.60;99.90
43858;DHT22;29507;51.284;5.758;2023-05-10T05:25:53;12.60;99.90
43858;DHT22;29507;51.284;5.758;2023-05-10T05:28:20;12.60;99.90
43858;DHT22;29507;51.284;5.758;2023-05-10T05:30:46;12.60;99.90
43858;DHT22;29507;51.284;5.758;2023-05-10T05:33:13;12.50;99.90
43858;DHT22;29507;51.284;5.758;2023-05-10T05:35:39;12.50;99.90
43858;DHT22;29507;51.284;5.758;2023-05-10T05:38:05;12.40;99.90
43858;DHT22;29507;51.284;5.758;2023-05-10T05:40:31;12.40;99.90
43858;DHT22;29507;51.284;5.758;2023-05-10T05:42:57;12.40;99.90
43858;DHT22;29507;51.284;5.758;2023-05-10T05:45:22;12.40;99.90
43858;DHT22;29507;51.284;5.758;2023-05-10T05:47:48;12.40;99.90
43858;DHT22;29507;51.284;5.758;2023-05-10T05:50:13;12.40;99.90
43858;DHT22;29507;51.284;5.758;2023-05-10T05:52:39;12.50;99.90
43858;DHT22;29507;51.284;5.758;2023-05-10T05:55:05;12.50;99.90
43858;DHT22;29507;51.284;5.758;2023-05-10T05:57:31;12.60;99.90
43858;DHT22;29507;51.284;5.758;2023-05-10T05:59:56;12.60;99.90
43858;DHT22;29507;51.284;5.758;2023-05-10T06:02:22;12.60;99.90
43858;DHT22;29507;51.284;5.758;2023-05-10T06:04:48;12.70;99.90
43858;DHT22;29507;51.284;5.758;2023-05-10T06:07:13;12.80;99.90
43858;DHT22;29507;51.284;5.758;2023-05-10T06:09:39;12.90;99.90
43858;DHT22;29507;51.284;5.758;2023-05-10T06:12:04;12.90;99.90
43858;DHT22;29507;51.284;5.758;2023-05-10T06:14:30;13.00;99.90
43858;DHT22;29507;51.284;5.758;2023-05-10T06:16:56;13.00;99.90
43858;DHT22;29507;51.284;5.758;2023-05-10T06:19:21;13.00;99.90
43858;DHT22;29507;51.284;5.758;2023-05-10T06:21:47;12.90;99.90
43858;DHT22;29507;51.284;5.758;2023-05-10T06:24:12;12.90;99.90
43858;DHT22;29507;51.284;5.758;2023-05-10T06:26:38;12.80;99.90
43858;DHT22;29507;51.284;5.758;2023-05-10T06:29:04;12.80;99.90
43858;DHT22;29507;51.284;5.758;2023-05-10T06:31:29;12.80;99.90
43858;DHT22;29507;51.284;5.758;2023-05-10T06:33:55;12.80;99.90
43858;DHT22;29507;51.284;5.758;2023-05-10T06:36:20;12.70;99.90
43858;DHT22;29507;51.284;5.758;2023-05-10T06:38:47;12.70;99.90
43858;DHT22;29507;51.284;5.758;2023-05-10T06:41:13;12.80;99.90
43858;DHT22;29507;51.284;5.758;2023-05-10T06:43:38;12.80;99.90
43858;DHT22;29507;51.284;5.758;2023-05-10T06:46:06;12.90;99.90
43858;DHT22;29507;51.284;5.758;2023-05-10T06:48:32;12.90;99.90
43858;DHT22;29507;51.284;5.758;2023-05-10T06:50:58;13.00;99.90
43858;DHT22;29507;51.284;5.758;2023-05-10T06:53:23;13.00;99.90
43858;DHT22;29507;51.284;5.758;2023-05-10T06:55:49;13.00;99.90
43858;DHT22;29507;51.284;5.758;2023-05-10T06:58:15;13.10;99.90
43858;DHT22;29507;51.284;5.758;2023-05-10T07:00:41;13.10;99.90
43858;DHT22;29507;51.284;5.758;2023-05-10T07:03:11;13.20;99.90
43858;DHT22;29507;51.284;5.758;2023-05-10T07:05:37;13.20;99.90
43858;DHT22;29507;51.284;5.758;2023-05-10T07:08:03;13.30;99.90
43858;DHT22;29507;51.284;5.758;2023-05-10T07:10:28;13.40;99.90
43858;DHT22;29507;51.284;5.758;2023-05-10T07:12:54;13.50;99.90
43858;DHT22;29507;51.284;5.758;2023-05-10T07:15:19;13.60;99.90
43858;DHT22;29507;51.284;5.758;2023-05-10T07:17:45;13.80;99.90
43858;DHT22;29507;51.284;5.758;2023-05-10T07:20:11;14.00;99.90
43858;DHT22;29507;51.284;5.758;2023-05-10T07:22:37;14.10;99.90
43858;DHT22;29507;51.284;5.758;2023-05-10T07:25:03;14.10;99.90
43858;DHT22;29507;51.284;5.758;2023-05-10T07:27:28;14.10;99.90
43858;DHT22;29507;51.284;5.758;2023-05-10T07:29:54;14.10;99.90
43858;DHT22;29507;51.284;5.758;2023-05-10T07:32:20;14.10;99.90
43858;DHT22;29507;51.284;5.758;2023-05-10T07:34:46;14.20;99.90
43858;DHT22;29507;51.284;5.758;2023-05-10T07:37:12;14.20;99.90
43858;DHT22;29507;51.284;5.758;2023-05-10T07:39:38;14.10;99.90
43858;DHT22;29507;51.284;5.758;2023-05-10T07:42:03;14.00;99.90
43858;DHT22;29507;51.284;5.758;2023-05-10T07:44:29;14.00;99.90
43858;DHT22;29507;51.284;5.758;2023-05-10T07:46:54;13.90;99.90
43858;DHT22;29507;51.284;5.758;2023-05-10T07:49:21;13.90;99.90
43858;DHT22;29507;51.284;5.758;2023-05-10T07:51:46;13.80;99.90
43858;DHT22;29507;51.284;5.758;2023-05-10T07:54:13;13.70;99.90
43858;DHT22;29507;51.284;5.758;2023-05-10T07:56:42;13.60;99.90
43858;DHT22;29507;51.284;5.758;2023-05-10T07:59:15;13.70;99.90
43858;DHT22;29507;51.284;5.758;2023-05-10T08:01:42;13.70;99.90
43858;DHT22;29507;51.284;5.758;2023-05-10T08:04:08;13.70;99.90
43858;DHT22;29507;51.284;5.758;2023-05-10T08:06:34;13.80;99.90
43858;DHT22;29507;51.284;5.758;2023-05-10T08:08:59;13.80;99.90
43858;DHT22;29507;51.284;5.758;2023-05-10T08:11:25;13.90;99.90
43858;DHT22;29507;51.284;5.758;2023-05-10T08:13:53;13.90;99.90
43858;DHT22;29507;51.284;5.758;2023-05-10T08:16:19;14.00;99.90
43858;DHT22;29507;51.284;5.758;2023-05-10T08:18:45;13.90;99.90
43858;DHT22;29507;51.284;5.758;2023-05-10T08:21:12;13.90;99.90
43858;DHT22;29507;51.284;5.758;2023-05-10T08:23:37;13.70;99.90
43858;DHT22;29507;51.284;5.758;2023-05-10T08:26:03;13.60;99.90
43858;DHT22;29507;51.284;5.758;2023-05-10T08:28:29;13.50;99.90
43858;DHT22;29507;51.284;5.758;2023-05-10T08:30:55;13.30;99.90
43858;DHT22;29507;51.284;5.758;2023-05-10T08:33:21;13.20;99.90
43858;DHT22;29507;51.284;5.758;2023-05-10T08:35:46;13.20;99.90
43858;DHT22;29507;51.284;5.758;2023-05-10T08:38:12;13.20;99.90
43858;DHT22;29507;51.284;5.758;2023-05-10T08:40:41;13.20;99.90
43858;DHT22;29507;51.284;5.758;2023-05-10T08:43:10;13.30;99.90
43858;DHT22;29507;51.284;5.758;2023-05-10T08:45:41;13.30;99.90
43858;DHT22;29507;51.284;5.758;2023-05-10T08:48:08;13.40;99.90
43858;DHT22;29507;51.284;5.758;2023-05-10T08:50:39;13.50;99.90
43858;DHT22;29507;51.284;5.758;2023-05-10T08:53:09;13.50;99.90
43858;DHT22;29507;51.284;5.758;2023-05-10T08:55:34;13.50;99.90
43858;DHT22;29507;51.284;5.758;2023-05-10T08:58:03;13.50;99.90
43858;DHT22;29507;51.284;5.758;2023-05-10T09:00:29;13.60;99.90
43858;DHT22;29507;51.284;5.758;2023-05-10T09:02:59;13.50;99.90
43858;DHT22;29507;51.284;5.758;2023-05-10T09:05:25;13.40;99.90
43858;DHT22;29507;51.284;5.758;2023-05-10T09:07:51;13.30;99.90
43858;DHT22;29507;51.284;5.758;2023-05-10T09:10:17;13.30;99.90
43858;DHT22;29507;51.284;5.758;2023-05-10T09:12:44;13.30;99.90
43858;DHT22;29507;51.284;5.758;2023-05-10T09:15:11;13.30;99.90
43858;DHT22;29507;51.284;5.758;2023-05-10T09:17:38;13.40;99.90
43858;DHT22;29507;51.284;5.758;2023-05-10T09:20:06;13.50;99.90
43858;DHT22;29507;51.284;5.758;2023-05-10T09:22:35;13.70;99.90
43858;DHT22;29507;51.284;5.758;2023-05-10T09:25:06;13.80;99.90
43858;DHT22;29507;51.284;5.758;2023-05-10T09:27:32;13.80;99.90
43858;DHT22;29507;51.284;5.758;2023-05-10T09:29:58;13.80;99.90
43858;DHT22;29507;51.284;5.758;2023-05-10T09:32:42;13.80;99.90
43858;DHT22;29507;51.284;5.758;2023-05-10T09:35:28;13.80;99.90
43858;DHT22;29507;51.284;5.758;2023-05-10T09:37:55;13.80;99.90
43858;DHT22;29507;51.284;5.758;2023-05-10T09:40:23;13.90;99.90
43858;DHT22;29507;51.284;5.758;2023-05-10T09:42:58;14.00;99.90
43858;DHT22;29507;51.284;5.758;2023-05-10T09:45:29;14.20;99.90
43858;DHT22;29507;51.284;5.758;2023-05-10T09:47:55;14.60;99.90
43858;DHT22;29507;51.284;5.758;2023-05-10T09:50:22;15.00;99.90
43858;DHT22;29507;51.284;5.758;2023-05-10T09:52:52;15.40;99.90
43858;DHT22;29507;51.284;5.758;2023-05-10T09:55:22;15.70;99.90
43858;DHT22;29507;51.284;5.758;2023-05-10T09:57:49;16.00;99.90
43858;DHT22;29507;51.284;5.758;2023-05-10T10:00:23;16.20;99.90
43858;DHT22;29507;51.284;5.758;2023-05-10T10:02:59;16.40;99.90
43858;DHT22;29507;51.284;5.758;2023-05-10T10:05:35;16.60;99.90
43858;DHT22;29507;51.284;5.758;2023-05-10T10:08:02;17.00;99.90
43858;DHT22;29507;51.284;5.758;2023-05-10T10:10:29;17.20;99.90
43858;DHT22;29507;51.284;5.758;2023-05-10T10:12:56;16.90;99.90
43858;DHT22;29507;51.284;5.758;2023-05-10T10:15:22;16.70;99.90
43858;DHT22;29507;51.284;5.758;2023-05-10T10:17:49;16.50;99.90
43858;DHT22;29507;51.284;5.758;2023-05-10T10:20:15;16.40;99.90
43858;DHT22;29507;51.284;5.758;2023-05-10T10:22:41;16.60;99.90
43858;DHT22;29507;51.284;5.758;2023-05-10T10:25:10;16.70;99.90
43858;DHT22;29507;51.284;5.758;2023-05-10T10:30:39;16.80;99.90
43858;DHT22;29507;51.284;5.758;2023-05-10T10:35:54;16.90;99.90
43858;DHT22;29507;51.284;5.758;2023-05-10T10:38:21;16.90;99.90
43858;DHT22;29507;51.284;5.758;2023-05-10T10:40:48;16.70;99.90
43858;DHT22;29507;51.284;5.758;2023-05-10T10:43:27;16.40;99.90
43858;DHT22;29507;51.284;5.758;2023-05-10T10:46:11;16.20;99.90
43858;DHT22;29507;51.284;5.758;2023-05-10T10:48:38;16.00;99.90
43858;DHT22;29507;51.284;5.758;2023-05-10T10:51:03;15.90;99.90
43858;DHT22;29507;51.284;5.758;2023-05-10T10:53:29;15.90;99.90
43858;DHT22;29507;51.284;5.758;2023-05-10T10:56:09;15.80;99.90
43858;DHT22;29507;51.284;5.758;2023-05-10T10:58:36;15.90;99.90
43858;DHT22;29507;51.284;5.758;2023-05-10T11:01:18;15.90;99.90
43858;DHT22;29507;51.284;5.758;2023-05-10T11:06:30;15.90;99.90
43858;DHT22;29507;51.284;5.758;2023-05-10T11:08:57;16.10;99.90
43858;DHT22;29507;51.284;5.758;2023-05-10T11:11:23;16.40;99.90
43858;DHT22;29507;51.284;5.758;2023-05-10T11:13:49;16.50;99.90
43858;DHT22;29507;51.284;5.758;2023-05-10T11:16:24;16.80;99.90
43858;DHT22;29507;51.284;5.758;2023-05-10T11:21:18;17.60;99.90
43858;DHT22;29507;51.284;5.758;2023-05-10T11:23:48;17.80;99.90
43858;DHT22;29507;51.284;5.758;2023-05-10T11:26:14;18.20;99.90
43858;DHT22;29507;51.284;5.758;2023-05-10T11:28:49;18.50;99.90
43858;DHT22;29507;51.284;5.758;2023-05-10T11:31:16;18.40;99.90
43858;DHT22;29507;51.284;5.758;2023-05-10T11:33:49;18.40;99.90
43858;DHT22;29507;51.284;5.758;2023-05-10T11:36:34;18.40;99.90
43858;DHT22;29507;51.284;5.758;2023-05-10T11:39:01;18.20;99.90
43858;DHT22;29507;51.284;5.758;2023-05-10T11:41:29;18.10;99.90
43858;DHT22;29507;51.284;5.758;2023-05-10T11:43:55;18.00;99.90
43858;DHT22;29507;51.284;5.758;2023-05-10T11:46:26;17.90;99.90
43858;DHT22;29507;51.284;5.758;2023-05-10T11:49:01;17.90;99.90
43858;DHT22;29507;51.284;5.758;2023-05-10T11:51:32;17.80;99.90
43858;DHT22;29507;51.284;5.758;2023-05-10T11:53:58;18.10;99.90
43858;DHT22;29507;51.284;5.758;2023-05-10T11:56:24;18.10;99.90
43858;DHT22;29507;51.284;5.758;2023-05-10T11:58:56;18.10;99.90
43858;DHT22;29507;51.284;5.758;2023-05-10T12:01:22;17.90;99.90
43858;DHT22;29507;51.284;5.758;2023-05-10T12:03:50;17.80;99.90
43858;DHT22;29507;51.284;5.758;2023-05-10T12:06:16;18.00;99.90
43858;DHT22;29507;51.284;5.758;2023-05-10T12:08:48;18.20;99.90
43858;DHT22;29507;51.284;5.758;2023-05-10T12:11:18;18.00;99.90
43858;DHT22;29507;51.284;5.758;2023-05-10T12:13:44;18.20;99.90
43858;DHT22;29507;51.284;5.758;2023-05-10T12:16:24;18.30;99.90
43858;DHT22;29507;51.284;5.758;2023-05-10T12:18:57;18.30;99.90
43858;DHT22;29507;51.284;5.758;2023-05-10T12:21:23;18.10;99.90
43858;DHT22;29507;51.284;5.758;2023-05-10T12:23:52;18.10;99.90
43858;DHT22;29507;51.284;5.758;2023-05-10T12:26:21;18.30;99.90
43858;DHT22;29507;51.284;5.758;2023-05-10T12:28:47;18.70;99.90
43858;DHT22;29507;51.284;5.758;2023-05-10T12:31:12;20.30;99.90
43858;DHT22;29507;51.284;5.758;2023-05-10T12:33:42;20.60;99.90
43858;DHT22;29507;51.284;5.758;2023-05-10T12:36:13;19.90;99.90
43858;DHT22;29507;51.284;5.758;2023-05-10T12:38:44;19.20;99.90
43858;DHT22;29507;51.284;5.758;2023-05-10T12:41:14;18.90;99.90
43858;DHT22;29507;51.284;5.758;2023-05-10T12:43:40;18.60;99.90
43858;DHT22;29507;51.284;5.758;2023-05-10T12:46:11;18.40;99.90
43858;DHT22;29507;51.284;5.758;2023-05-10T12:48:38;18.50;99.90
43858;DHT22;29507;51.284;5.758;2023-05-10T12:51:04;19.30;99.90
43858;DHT22;29507;51.284;5.758;2023-05-10T12:53:31;19.80;99.90
43858;DHT22;29507;51.284;5.758;2023-05-10T12:55:56;20.00;99.90
43858;DHT22;29507;51.284;5.758;2023-05-10T12:58:22;20.50;99.90
43858;DHT22;29507;51.284;5.758;2023-05-10T13:00:48;21.00;99.90
43858;DHT22;29507;51.284;5.758;2023-05-10T13:03:13;21.00;99.90
43858;DHT22;29507;51.284;5.758;2023-05-10T13:05:40;21.10;99.90
43858;DHT22;29507;51.284;5.758;2023-05-10T13:08:06;20.80;99.90
43858;DHT22;29507;51.284;5.758;2023-05-10T13:10:32;20.30;99.90
43858;DHT22;29507;51.284;5.758;2023-05-10T13:12:59;20.00;99.90
43858;DHT22;29507;51.284;5.758;2023-05-10T13:15:25;19.40;99.90
43858;DHT22;29507;51.284;5.758;2023-05-10T13:17:50;19.00;99.90
43858;DHT22;29507;51.284;5.758;2023-05-10T13:20:16;18.80;99.90
43858;DHT22;29507;51.284;5.758;2023-05-10T13:22:43;18.50;99.90
43858;DHT22;29507;51.284;5.758;2023-05-10T13:25:09;18.30;99.90
43858;DHT22;29507;51.284;5.758;2023-05-10T13:27:35;18.00;99.90
43858;DHT22;29507;51.284;5.758;2023-05-10T13:30:02;17.80;99.90
43858;DHT22;29507;51.284;5.758;2023-05-10T13:32:28;17.60;99.90
43858;DHT22;29507;51.284;5.758;2023-05-10T13:34:55;17.40;99.90
43858;DHT22;29507;51.284;5.758;2023-05-10T13:37:20;17.10;99.90
43858;DHT22;29507;51.284;5.758;2023-05-10T13:39:46;16.90;99.90
43858;DHT22;29507;51.284;5.758;2023-05-10T13:42:12;16.50;99.90
43858;DHT22;29507;51.284;5.758;2023-05-10T13:44:37;16.10;99.90
43858;DHT22;29507;51.284;5.758;2023-05-10T13:47:04;15.50;99.90
43858;DHT22;29507;51.284;5.758;2023-05-10T13:49:30;15.10;99.90
43858;DHT22;29507;51.284;5.758;2023-05-10T13:51:56;14.70;99.90
43858;DHT22;29507;51.284;5.758;2023-05-10T13:54:22;14.40;99.90
43858;DHT22;29507;51.284;5.758;2023-05-10T13:56:48;14.30;99.90
43858;DHT22;29507;51.284;5.758;2023-05-10T13:59:14;14.20;99.90
43858;DHT22;29507;51.284;5.758;2023-05-10T14:01:42;14.30;99.90
43858;DHT22;29507;51.284;5.758;2023-05-10T14:04:08;14.40;99.90
43858;DHT22;29507;51.284;5.758;2023-05-10T14:06:36;14.50;99.90
43858;DHT22;29507;51.284;5.758;2023-05-10T14:09:02;14.40;99.90
43858;DHT22;29507;51.284;5.758;2023-05-10T14:11:28;14.40;99.90
43858;DHT22;29507;51.284;5.758;2023-05-10T14:13:54;14.40;99.90
43858;DHT22;29507;51.284;5.758;2023-05-10T14:16:20;14.40;99.90
43858;DHT22;29507;51.284;5.758;2023-05-10T14:18:46;14.40;99.90
43858;DHT22;29507;51.284;5.758;2023-05-10T14:21:12;14.40;99.90
43858;DHT22;29507;51.284;5.758;2023-05-10T14:23:38;14.40;99.90
43858;DHT22;29507;51.284;5.758;2023-05-10T14:26:04;14.30;99.90
43858;DHT22;29507;51.284;5.758;2023-05-10T14:28:30;14.20;99.90
43858;DHT22;29507;51.284;5.758;2023-05-10T14:30:55;14.20;99.90
43858;DHT22;29507;51.284;5.758;2023-05-10T14:33:21;14.10;99.90
43858;DHT22;29507;51.284;5.758;2023-05-10T14:35:47;14.10;99.90
43858;DHT22;29507;51.284;5.758;2023-05-10T14:38:14;14.10;99.90
43858;DHT22;29507;51.284;5.758;2023-05-10T14:40:39;14.20;99.90
43858;DHT22;29507;51.284;5.758;2023-05-10T14:43:05;14.20;99.90
43858;DHT22;29507;51.284;5.758;2023-05-10T14:45:31;14.20;99.90
43858;DHT22;29507;51.284;5.758;2023-05-10T14:47:57;14.10;99.90
43858;DHT22;29507;51.284;5.758;2023-05-10T14:50:22;13.90;99.90
43858;DHT22;29507;51.284;5.758;2023-05-10T14:52:48;13.80;99.90
43858;DHT22;29507;51.284;5.758;2023-05-10T14:55:14;13.70;99.90
43858;DHT22;29507;51.284;5.758;2023-05-10T14:57:40;13.80;99.90
43858;DHT22;29507;51.284;5.758;2023-05-10T15:00:06;13.80;99.90
43858;DHT22;29507;51.284;5.758;2023-05-10T15:02:32;13.80;99.90
43858;DHT22;29507;51.284;5.758;2023-05-10T15:04:58;13.90;99.90
43858;DHT22;29507;51.284;5.758;2023-05-10T15:07:23;14.00;99.90
43858;DHT22;29507;51.284;5.758;2023-05-10T15:09:52;14.20;99.90
43858;DHT22;29507;51.284;5.758;2023-05-10T15:12:18;14.30;99.90
43858;DHT22;29507;51.284;5.758;2023-05-10T15:14:44;14.40;99.90
43858;DHT22;29507;51.284;5.758;2023-05-10T15:17:10;14.30;99.90
43858;DHT22;29507;51.284;5.758;2023-05-10T15:19:35;14.30;99.90
43858;DHT22;29507;51.284;5.758;2023-05-10T15:22:02;14.10;99.90
43858;DHT22;29507;51.284;5.758;2023-05-10T15:24:27;14.10;99.90
43858;DHT22;29507;51.284;5.758;2023-05-10T15:26:53;14.00;99.90
43858;DHT22;29507;51.284;5.758;2023-05-10T15:29:19;13.90;99.90
43858;DHT22;29507;51.284;5.758;2023-05-10T15:31:49;13.80;99.90
43858;DHT22;29507;51.284;5.758;2023-05-10T15:34:16;13.70;99.90
43858;DHT22;29507;51.284;5.758;2023-05-10T15:36:42;13.60;99.90
43858;DHT22;29507;51.284;5.758;2023-05-10T15:39:07;13.60;99.90
43858;DHT22;29507;51.284;5.758;2023-05-10T15:41:34;13.60;99.90
43858;DHT22;29507;51.284;5.758;2023-05-10T15:44:00;13.70;99.90
43858;DHT22;29507;51.284;5.758;2023-05-10T15:46:27;13.70;99.90
43858;DHT22;29507;51.284;5.758;2023-05-10T15:48:53;13.70;99.90
43858;DHT22;29507;51.284;5.758;2023-05-10T15:51:19;13.80;99.90
43858;DHT22;29507;51.284;5.758;2023-05-10T15:53:45;13.80;99.90